sensor_id;sensor_type;location;lat;lon;timestamp;temperature;humidity
29849;DHT22;16728;50.832;5.590;2022-12-07T00:00:28;5.60;99.90
29849;DHT22;16728;50.832;5.590;2022-12-07T00:03:30;5.60;99.90
29849;DHT22;16728;50.832;5.590;2022-12-07T00:06:34;5.60;99.90
29849;DHT22;16728;50.832;5.590;2022-12-07T00:09:36;5.60;99.90
29849;DHT22;16728;50.832;5.590;2022-12-07T00:12:38;5.60;99.90
29849;DHT22;16728;50.832;5.590;2022-12-07T00:15:40;5.60;99.90
29849;DHT22;16728;50.832;5.590;2022-12-07T00:18:42;5.60;99.90
29849;DHT22;16728;50.832;5.590;2022-12-07T00:21:45;5.70;99.90
29849;DHT22;16728;50.832;5.590;2022-12-07T00:24:46;5.60;99.90
29849;DHT22;16728;50.832;5.590;2022-12-07T00:27:48;5.70;99.90
29849;DHT22;16728;50.832;5.590;2022-12-07T00:30:50;5.60;99.90
29849;DHT22;16728;50.832;5.590;2022-12-07T00:33:52;5.60;99.90
29849;DHT22;16728;50.832;5.590;2022-12-07T00:36:54;5.60;99.90
29849;DHT22;16728;50.832;5.590;2022-12-07T00:39:56;5.60;99.90
29849;DHT22;16728;50.832;5.590;2022-12-07T00:42:59;5.60;99.90
29849;DHT22;16728;50.832;5.590;2022-12-07T00:46:01;5.60;99.90
29849;DHT22;16728;50.832;5.590;2022-12-07T00:49:03;5.60;99.90
29849;DHT22;16728;50.832;5.590;2022-12-07T00:52:05;5.60;99.90
29849;DHT22;16728;50.832;5.590;2022-12-07T00:55:07;5.60;99.90
29849;DHT22;16728;50.832;5.590;2022-12-07T00:58:09;5.60;99.90
29849;DHT22;16728;50.832;5.590;2022-12-07T01:01:11;5.60;99.90
29849;DHT22;16728;50.832;5.590;2022-12-07T01:04:14;5.60;99.90
29849;DHT22;16728;50.832;5.590;2022-12-07T01:07:15;5.60;99.90
29849;DHT22;16728;50.832;5.590;2022-12-07T01:10:17;5.60;99.90
29849;DHT22;16728;50.832;5.590;2022-12-07T01:13:19;5.60;99.90
29849;DHT22;16728;50.832;5.590;2022-12-07T01:16:24;5.60;99.90
29849;DHT22;16728;50.832;5.590;2022-12-07T01:19:26;5.50;99.90
29849;DHT22;16728;50.832;5.590;2022-12-07T01:22:28;5.50;99.90
29849;DHT22;16728;50.832;5.590;2022-12-07T01:25:30;5.60;99.90
29849;DHT22;16728;50.832;5.590;2022-12-07T01:28:32;5.60;99.90
29849;DHT22;16728;50.832;5.590;2022-12-07T01:31:34;5.50;99.90
29849;DHT22;16728;50.832;5.590;2022-12-07T01:34:36;5.50;99.90
29849;DHT22;16728;50.832;5.590;2022-12-07T01:37:39;5.50;99.90
29849;DHT22;16728;50.832;5.590;2022-12-07T01:40:40;5.50;99.90
29849;DHT22;16728;50.832;5.590;2022-12-07T01:47:11;5.60;99.90
29849;DHT22;16728;50.832;5.590;2022-12-07T01:50:13;5.50;99.90
29849;DHT22;16728;50.832;5.590;2022-12-07T01:53:16;5.60;99.90
29849;DHT22;16728;50.832;5.590;2022-12-07T01:56:20;5.50;99.90
29849;DHT22;16728;50.832;5.590;2022-12-07T01:59:25;5.60;99.90
29849;DHT22;16728;50.832;5.590;2022-12-07T02:02:33;5.60;99.90
29849;DHT22;16728;50.832;5.590;2022-12-07T02:05:37;5.60;99.90
29849;DHT22;16728;50.832;5.590;2022-12-07T02:08:40;5.60;99.90
29849;DHT22;16728;50.832;5.590;2022-12-07T02:11:42;5.50;99.90
29849;DHT22;16728;50.832;5.590;2022-12-07T02:14:44;5.50;99.90
29849;DHT22;16728;50.832;5.590;2022-12-07T02:21:51;5.50;99.90
29849;DHT22;16728;50.832;5.590;2022-12-07T02:31:27;5.40;99.90
29849;DHT22;16728;50.832;5.590;2022-12-07T02:34:37;5.40;99.90
29849;DHT22;16728;50.832;5.590;2022-12-07T02:41:09;5.30;99.90
29849;DHT22;16728;50.832;5.590;2022-12-07T02:44:14;5.40;99.90
29849;DHT22;16728;50.832;5.590;2022-12-07T02:47:20;5.30;99.90
29849;DHT22;16728;50.832;5.590;2022-12-07T02:50:23;5.30;99.90
29849;DHT22;16728;50.832;5.590;2022-12-07T02:56:50;5.30;99.90
29849;DHT22;16728;50.832;5.590;2022-12-07T03:03:00;5.30;99.90
29849;DHT22;16728;50.832;5.590;2022-12-07T03:06:22;5.40;99.90
29849;DHT22;16728;50.832;5.590;2022-12-07T03:09:37;5.40;99.90
29849;DHT22;16728;50.832;5.590;2022-12-07T03:19:18;5.30;99.90
29849;DHT22;16728;50.832;5.590;2022-12-07T03:22:22;5.30;99.90
29849;DHT22;16728;50.832;5.590;2022-12-07T03:25:24;5.30;99.90
29849;DHT22;16728;50.832;5.590;2022-12-07T03:28:33;5.30;99.90
29849;DHT22;16728;50.832;5.590;2022-12-07T03:31:40;5.30;99.90
29849;DHT22;16728;50.832;5.590;2022-12-07T03:34:47;5.30;99.90
29849;DHT22;16728;50.832;5.590;2022-12-07T03:38:04;5.30;99.90
29849;DHT22;16728;50.832;5.590;2022-12-07T03:41:18;5.40;99.90
29849;DHT22;16728;50.832;5.590;2022-12-07T03:44:22;5.30;99.90
29849;DHT22;16728;50.832;5.590;2022-12-07T03:47:46;5.40;99.90
29849;DHT22;16728;50.832;5.590;2022-12-07T03:51:25;5.30;99.90
29849;DHT22;16728;50.832;5.590;2022-12-07T03:54:34;5.40;99.90
29849;DHT22;16728;50.832;5.590;2022-12-07T03:57:39;5.30;99.90
29849;DHT22;16728;50.832;5.590;2022-12-07T04:00:44;5.30;99.90
29849;DHT22;16728;50.832;5.590;2022-12-07T04:03:46;5.30;99.90
29849;DHT22;16728;50.832;5.590;2022-12-07T04:06:48;5.30;99.90
29849;DHT22;16728;50.832;5.590;2022-12-07T04:09:50;5.30;99.90
29849;DHT22;16728;50.832;5.590;2022-12-07T04:12:52;5.30;99.90
29849;DHT22;16728;50.832;5.590;2022-12-07T04:15:53;5.30;99.90
29849;DHT22;16728;50.832;5.590;2022-12-07T04:18:56;5.30;99.90
29849;DHT22;16728;50.832;5.590;2022-12-07T04:22:00;5.30;99.90
29849;DHT22;16728;50.832;5.590;2022-12-07T04:25:02;5.30;99.90
29849;DHT22;16728;50.832;5.590;2022-12-07T04:28:04;5.30;99.90
29849;DHT22;16728;50.832;5.590;2022-12-07T04:31:06;5.30;99.90
29849;DHT22;16728;50.832;5.590;2022-12-07T04:34:09;5.30;99.90
29849;DHT22;16728;50.832;5.590;2022-12-07T04:37:10;5.40;99.90
29849;DHT22;16728;50.832;5.590;2022-12-07T04:40:12;5.30;99.90
29849;DHT22;16728;50.832;5.590;2022-12-07T04:43:15;5.30;99.90
29849;DHT22;16728;50.832;5.590;2022-12-07T04:46:17;5.30;99.90
29849;DHT22;16728;50.832;5.590;2022-12-07T04:49:20;5.20;99.90
29849;DHT22;16728;50.832;5.590;2022-12-07T04:52:22;5.30;99.90
29849;DHT22;16728;50.832;5.590;2022-12-07T04:55:23;5.30;99.90
29849;DHT22;16728;50.832;5.590;2022-12-07T04:58:25;5.30;99.90
29849;DHT22;16728;50.832;5.590;2022-12-07T05:01:27;5.20;99.90
29849;DHT22;16728;50.832;5.590;2022-12-07T05:04:29;5.20;99.90
29849;DHT22;16728;50.832;5.590;2022-12-07T05:07:31;5.20;99.90
29849;DHT22;16728;50.832;5.590;2022-12-07T05:10:33;5.20;99.90
29849;DHT22;16728;50.832;5.590;2022-12-07T05:13:35;5.10;99.90
29849;DHT22;16728;50.832;5.590;2022-12-07T05:16:38;5.10;99.90
29849;DHT22;16728;50.832;5.590;2022-12-07T05:19:40;5.10;99.90
29849;DHT22;16728;50.832;5.590;2022-12-07T05:22:42;5.10;99.90
29849;DHT22;16728;50.832;5.590;2022-12-07T05:25:45;5.10;99.90
29849;DHT22;16728;50.832;5.590;2022-12-07T05:28:51;5.10;99.90
29849;DHT22;16728;50.832;5.590;2022-12-07T05:31:53;5.10;99.90
29849;DHT22;16728;50.832;5.590;2022-12-07T05:34:55;5.10;99.90
29849;DHT22;16728;50.832;5.590;2022-12-07T05:37:57;5.10;99.90
29849;DHT22;16728;50.832;5.590;2022-12-07T05:41:01;5.00;99.90
29849;DHT22;16728;50.832;5.590;2022-12-07T05:44:05;5.00;99.90
29849;DHT22;16728;50.832;5.590;2022-12-07T05:47:07;5.00;99.90
29849;DHT22;16728;50.832;5.590;2022-12-07T05:50:09;4.90;99.90
29849;DHT22;16728;50.832;5.590;2022-12-07T05:53:11;5.00;99.90
29849;DHT22;16728;50.832;5.590;2022-12-07T05:56:13;5.00;99.90
29849;DHT22;16728;50.832;5.590;2022-12-07T05:59:15;5.00;99.90
29849;DHT22;16728;50.832;5.590;2022-12-07T06:02:27;4.90;99.90
29849;DHT22;16728;50.832;5.590;2022-12-07T06:05:29;4.90;99.90
29849;DHT22;16728;50.832;5.590;2022-12-07T06:08:31;5.00;99.90
29849;DHT22;16728;50.832;5.590;2022-12-07T06:11:33;5.00;99.90
29849;DHT22;16728;50.832;5.590;2022-12-07T06:14:53;5.00;99.90
29849;DHT22;16728;50.832;5.590;2022-12-07T06:17:55;5.00;99.90
29849;DHT22;16728;50.832;5.590;2022-12-07T06:20:57;5.00;99.90
29849;DHT22;16728;50.832;5.590;2022-12-07T06:23:58;5.00;99.90
29849;DHT22;16728;50.832;5.590;2022-12-07T06:27:00;5.00;99.90
29849;DHT22;16728;50.832;5.590;2022-12-07T06:30:03;5.00;99.90
29849;DHT22;16728;50.832;5.590;2022-12-07T06:33:08;4.90;99.90
29849;DHT22;16728;50.832;5.590;2022-12-07T06:36:10;5.00;99.90
29849;DHT22;16728;50.832;5.590;2022-12-07T06:39:12;4.90;99.90
29849;DHT22;16728;50.832;5.590;2022-12-07T06:42:14;4.90;99.90
29849;DHT22;16728;50.832;5.590;2022-12-07T06:45:16;4.90;99.90
29849;DHT22;16728;50.832;5.590;2022-12-07T06:48:18;4.90;99.90
29849;DHT22;16728;50.832;5.590;2022-12-07T06:51:20;4.90;99.90
29849;DHT22;16728;50.832;5.590;2022-12-07T06:54:22;5.00;99.90
29849;DHT22;16728;50.832;5.590;2022-12-07T06:57:24;4.90;99.90
29849;DHT22;16728;50.832;5.590;2022-12-07T07:00:26;4.90;99.90
29849;DHT22;16728;50.832;5.590;2022-12-07T07:03:27;5.00;99.90
29849;DHT22;16728;50.832;5.590;2022-12-07T07:06:29;4.90;99.90
29849;DHT22;16728;50.832;5.590;2022-12-07T07:09:31;5.00;99.90
29849;DHT22;16728;50.832;5.590;2022-12-07T07:12:33;5.00;99.90
29849;DHT22;16728;50.832;5.590;2022-12-07T07:15:37;5.00;99.90
29849;DHT22;16728;50.832;5.590;2022-12-07T07:18:39;5.00;99.90
29849;DHT22;16728;50.832;5.590;2022-12-07T07:21:41;5.00;99.90
29849;DHT22;16728;50.832;5.590;2022-12-07T07:24:43;5.00;99.90
29849;DHT22;16728;50.832;5.590;2022-12-07T07:27:45;5.00;99.90
29849;DHT22;16728;50.832;5.590;2022-12-07T07:30:47;4.90;99.90
29849;DHT22;16728;50.832;5.590;2022-12-07T07:33:49;5.00;99.90
29849;DHT22;16728;50.832;5.590;2022-12-07T07:36:51;4.90;99.90
29849;DHT22;16728;50.832;5.590;2022-12-07T07:39:52;4.90;99.90
29849;DHT22;16728;50.832;5.590;2022-12-07T07:42:55;4.90;99.90
29849;DHT22;16728;50.832;5.590;2022-12-07T07:45:57;4.90;99.90
29849;DHT22;16728;50.832;5.590;2022-12-07T07:48:59;5.00;99.90
29849;DHT22;16728;50.832;5.590;2022-12-07T07:52:02;5.00;99.90
29849;DHT22;16728;50.832;5.590;2022-12-07T07:55:04;4.90;99.90
29849;DHT22;16728;50.832;5.590;2022-12-07T07:58:06;4.90;99.90
29849;DHT22;16728;50.832;5.590;2022-12-07T08:01:08;4.90;99.90
29849;DHT22;16728;50.832;5.590;2022-12-07T08:04:10;4.90;99.90
29849;DHT22;16728;50.832;5.590;2022-12-07T08:07:12;4.90;99.90
29849;DHT22;16728;50.832;5.590;2022-12-07T08:10:14;4.80;99.90
29849;DHT22;16728;50.832;5.590;2022-12-07T08:13:16;4.80;99.90
29849;DHT22;16728;50.832;5.590;2022-12-07T08:16:19;4.80;99.90
29849;DHT22;16728;50.832;5.590;2022-12-07T08:19:24;4.80;99.90
29849;DHT22;16728;50.832;5.590;2022-12-07T08:22:38;4.70;99.90
29849;DHT22;16728;50.832;5.590;2022-12-07T08:25:40;4.70;99.90
29849;DHT22;16728;50.832;5.590;2022-12-07T08:28:47;4.60;99.90
29849;DHT22;16728;50.832;5.590;2022-12-07T08:31:53;4.70;99.90
29849;DHT22;16728;50.832;5.590;2022-12-07T08:34:55;4.70;99.90
29849;DHT22;16728;50.832;5.590;2022-12-07T08:37:57;4.70;99.90
29849;DHT22;16728;50.832;5.590;2022-12-07T08:40:59;4.70;99.90
29849;DHT22;16728;50.832;5.590;2022-12-07T08:44:02;4.70;99.90
29849;DHT22;16728;50.832;5.590;2022-12-07T08:47:05;4.70;99.90
29849;DHT22;16728;50.832;5.590;2022-12-07T08:50:10;4.70;99.90
29849;DHT22;16728;50.832;5.590;2022-12-07T08:53:13;4.70;99.90
29849;DHT22;16728;50.832;5.590;2022-12-07T08:56:15;4.80;99.90
29849;DHT22;16728;50.832;5.590;2022-12-07T08:59:19;4.80;99.90
29849;DHT22;16728;50.832;5.590;2022-12-07T09:02:35;4.80;99.90
29849;DHT22;16728;50.832;5.590;2022-12-07T09:05:37;5.00;99.90
29849;DHT22;16728;50.832;5.590;2022-12-07T09:08:43;5.00;99.90
29849;DHT22;16728;50.832;5.590;2022-12-07T09:11:53;5.00;99.90
29849;DHT22;16728;50.832;5.590;2022-12-07T09:15:05;5.20;99.90
29849;DHT22;16728;50.832;5.590;2022-12-07T09:18:06;5.20;99.90
29849;DHT22;16728;50.832;5.590;2022-12-07T09:21:09;5.20;99.90
29849;DHT22;16728;50.832;5.590;2022-12-07T09:24:12;5.30;99.90
29849;DHT22;16728;50.832;5.590;2022-12-07T09:27:14;5.30;99.90
29849;DHT22;16728;50.832;5.590;2022-12-07T09:30:18;5.30;99.90
29849;DHT22;16728;50.832;5.590;2022-12-07T09:33:38;5.30;99.90
29849;DHT22;16728;50.832;5.590;2022-12-07T09:36:49;5.40;99.90
29849;DHT22;16728;50.832;5.590;2022-12-07T09:39:51;5.40;99.90
29849;DHT22;16728;50.832;5.590;2022-12-07T09:42:54;5.50;99.90
29849;DHT22;16728;50.832;5.590;2022-12-07T09:46:05;5.40;99.90
29849;DHT22;16728;50.832;5.590;2022-12-07T09:49:18;5.40;99.90
29849;DHT22;16728;50.832;5.590;2022-12-07T09:52:25;5.40;99.90
29849;DHT22;16728;50.832;5.590;2022-12-07T09:55:29;5.40;99.90
29849;DHT22;16728;50.832;5.590;2022-12-07T09:58:33;5.50;99.90
29849;DHT22;16728;50.832;5.590;2022-12-07T10:01:39;5.50;99.90
29849;DHT22;16728;50.832;5.590;2022-12-07T10:04:41;5.60;99.90
29849;DHT22;16728;50.832;5.590;2022-12-07T10:07:44;5.70;99.90
29849;DHT22;16728;50.832;5.590;2022-12-07T10:10:51;5.80;99.90
29849;DHT22;16728;50.832;5.590;2022-12-07T10:13:53;5.80;99.90
29849;DHT22;16728;50.832;5.590;2022-12-07T10:16:55;5.90;99.90
29849;DHT22;16728;50.832;5.590;2022-12-07T10:23:18;6.00;99.90
29849;DHT22;16728;50.832;5.590;2022-12-07T10:29:51;6.00;99.90
29849;DHT22;16728;50.832;5.590;2022-12-07T10:32:53;6.00;99.90
29849;DHT22;16728;50.832;5.590;2022-12-07T10:35:55;6.00;99.90
29849;DHT22;16728;50.832;5.590;2022-12-07T10:42:03;6.10;99.90
29849;DHT22;16728;50.832;5.590;2022-12-07T10:48:13;6.10;99.90
29849;DHT22;16728;50.832;5.590;2022-12-07T11:04:39;6.10;99.90
29849;DHT22;16728;50.832;5.590;2022-12-07T11:21:09;6.30;99.90
29849;DHT22;16728;50.832;5.590;2022-12-07T11:24:19;6.30;99.90
29849;DHT22;16728;50.832;5.590;2022-12-07T11:30:37;6.30;99.90
29849;DHT22;16728;50.832;5.590;2022-12-07T11:33:47;6.30;99.90
29849;DHT22;16728;50.832;5.590;2022-12-07T11:36:53;6.30;99.90
29849;DHT22;16728;50.832;5.590;2022-12-07T11:40:02;6.30;99.90
29849;DHT22;16728;50.832;5.590;2022-12-07T11:43:24;6.30;99.90
29849;DHT22;16728;50.832;5.590;2022-12-07T11:53:32;6.50;99.90
29849;DHT22;16728;50.832;5.590;2022-12-07T11:56:35;6.50;99.90
29849;DHT22;16728;50.832;5.590;2022-12-07T11:59:43;6.50;99.90
29849;DHT22;16728;50.832;5.590;2022-12-07T12:03:01;6.50;99.90
29849;DHT22;16728;50.832;5.590;2022-12-07T12:06:05;6.40;99.90
29849;DHT22;16728;50.832;5.590;2022-12-07T12:09:29;6.40;99.90
29849;DHT22;16728;50.832;5.590;2022-12-07T12:12:47;6.40;99.90
29849;DHT22;16728;50.832;5.590;2022-12-07T12:16:22;6.50;99.90
29849;DHT22;16728;50.832;5.590;2022-12-07T12:26:21;6.60;99.90
29849;DHT22;16728;50.832;5.590;2022-12-07T12:29:37;6.60;99.90
29849;DHT22;16728;50.832;5.590;2022-12-07T12:32:44;6.60;99.90
29849;DHT22;16728;50.832;5.590;2022-12-07T12:35:46;6.60;99.90
29849;DHT22;16728;50.832;5.590;2022-12-07T12:42:18;6.70;99.90
29849;DHT22;16728;50.832;5.590;2022-12-07T12:45:25;6.80;99.90
29849;DHT22;16728;50.832;5.590;2022-12-07T12:48:35;6.80;99.90
29849;DHT22;16728;50.832;5.590;2022-12-07T12:51:40;6.80;99.90
29849;DHT22;16728;50.832;5.590;2022-12-07T13:01:40;6.70;99.90
29849;DHT22;16728;50.832;5.590;2022-12-07T13:08:01;6.80;99.90
29849;DHT22;16728;50.832;5.590;2022-12-07T13:11:40;6.80;99.90
29849;DHT22;16728;50.832;5.590;2022-12-07T13:17:56;6.80;99.90
29849;DHT22;16728;50.832;5.590;2022-12-07T13:24:12;6.70;99.90
29849;DHT22;16728;50.832;5.590;2022-12-07T13:27:15;6.80;99.90
29849;DHT22;16728;50.832;5.590;2022-12-07T13:30:19;6.70;99.90
29849;DHT22;16728;50.832;5.590;2022-12-07T13:33:21;6.70;99.90
29849;DHT22;16728;50.832;5.590;2022-12-07T13:36:26;6.70;99.90
29849;DHT22;16728;50.832;5.590;2022-12-07T13:39:28;6.80;99.90
29849;DHT22;16728;50.832;5.590;2022-12-07T13:42:33;6.80;99.90
29849;DHT22;16728;50.832;5.590;2022-12-07T13:45:35;6.80;99.90
29849;DHT22;16728;50.832;5.590;2022-12-07T13:48:53;6.80;99.90
29849;DHT22;16728;50.832;5.590;2022-12-07T13:52:22;6.80;99.90
29849;DHT22;16728;50.832;5.590;2022-12-07T13:55:24;6.80;99.90
29849;DHT22;16728;50.832;5.590;2022-12-07T13:58:30;6.80;99.90
29849;DHT22;16728;50.832;5.590;2022-12-07T14:01:33;6.70;99.90
29849;DHT22;16728;50.832;5.590;2022-12-07T14:04:38;6.70;99.90
29849;DHT22;16728;50.832;5.590;2022-12-07T14:08:01;6.70;99.90
29849;DHT22;16728;50.832;5.590;2022-12-07T14:11:04;6.80;99.90
29849;DHT22;16728;50.832;5.590;2022-12-07T14:14:23;6.80;99.90
29849;DHT22;16728;50.832;5.590;2022-12-07T14:17:31;6.80;99.90
29849;DHT22;16728;50.832;5.590;2022-12-07T14:20:38;6.80;99.90
29849;DHT22;16728;50.832;5.590;2022-12-07T14:27:21;6.80;99.90
29849;DHT22;16728;50.832;5.590;2022-12-07T14:30:26;6.80;99.90
29849;DHT22;16728;50.832;5.590;2022-12-07T14:33:29;6.80;99.90
29849;DHT22;16728;50.832;5.590;2022-12-07T14:36:34;6.80;99.90
29849;DHT22;16728;50.832;5.590;2022-12-07T14:39:36;6.70;99.90
29849;DHT22;16728;50.832;5.590;2022-12-07T14:42:39;6.70;99.90
29849;DHT22;16728;50.832;5.590;2022-12-07T14:45:41;6.70;99.90
29849;DHT22;16728;50.832;5.590;2022-12-07T14:48:43;6.70;99.90
29849;DHT22;16728;50.832;5.590;2022-12-07T14:52:09;6.80;99.90
29849;DHT22;16728;50.832;5.590;2022-12-07T14:55:35;6.70;99.90
29849;DHT22;16728;50.832;5.590;2022-12-07T14:58:40;6.70;99.90
29849;DHT22;16728;50.832;5.590;2022-12-07T15:01:43;6.70;99.90
29849;DHT22;16728;50.832;5.590;2022-12-07T15:04:44;6.70;99.90
29849;DHT22;16728;50.832;5.590;2022-12-07T15:07:48;6.70;99.90
29849;DHT22;16728;50.832;5.590;2022-12-07T15:10:50;6.60;99.90
29849;DHT22;16728;50.832;5.590;2022-12-07T15:13:52;6.60;99.90
29849;DHT22;16728;50.832;5.590;2022-12-07T15:17:12;6.50;99.90
29849;DHT22;16728;50.832;5.590;2022-12-07T15:20:28;6.50;99.90
29849;DHT22;16728;50.832;5.590;2022-12-07T15:23:30;6.40;99.90
29849;DHT22;16728;50.832;5.590;2022-12-07T15:26:33;6.50;99.90
29849;DHT22;16728;50.832;5.590;2022-12-07T15:29:35;6.50;99.90
29849;DHT22;16728;50.832;5.590;2022-12-07T15:32:37;6.50;99.90
29849;DHT22;16728;50.832;5.590;2022-12-07T15:35:48;6.50;99.90
29849;DHT22;16728;50.832;5.590;2022-12-07T15:38:50;6.40;99.90
29849;DHT22;16728;50.832;5.590;2022-12-07T15:42:12;6.40;99.90
29849;DHT22;16728;50.832;5.590;2022-12-07T15:45:14;6.40;99.90
29849;DHT22;16728;50.832;5.590;2022-12-07T15:48:16;6.40;99.90
29849;DHT22;16728;50.832;5.590;2022-12-07T15:51:29;6.40;99.90
29849;DHT22;16728;50.832;5.590;2022-12-07T15:54:32;6.30;99.90
29849;DHT22;16728;50.832;5.590;2022-12-07T15:57:36;6.40;99.90
29849;DHT22;16728;50.832;5.590;2022-12-07T16:00:38;6.30;99.90
29849;DHT22;16728;50.832;5.590;2022-12-07T16:03:40;6.30;99.90
29849;DHT22;16728;50.832;5.590;2022-12-07T16:06:42;6.30;99.90
29849;DHT22;16728;50.832;5.590;2022-12-07T16:09:45;6.30;99.90
29849;DHT22;16728;50.832;5.590;2022-12-07T16:12:47;6.30;99.90
29849;DHT22;16728;50.832;5.590;2022-12-07T16:15:49;6.30;99.90
29849;DHT22;16728;50.832;5.590;2022-12-07T16:18:51;6.30;99.90
29849;DHT22;16728;50.832;5.590;2022-12-07T16:21:53;6.30;99.90
29849;DHT22;16728;50.832;5.590;2022-12-07T16:28:52;6.20;99.90
29849;DHT22;16728;50.832;5.590;2022-12-07T16:31:54;6.30;99.90
29849;DHT22;16728;50.832;5.590;2022-12-07T16:34:56;6.30;99.90
29849;DHT22;16728;50.832;5.590;2022-12-07T16:37:58;6.30;99.90
29849;DHT22;16728;50.832;5.590;2022-12-07T16:41:00;6.20;99.90
29849;DHT22;16728;50.832;5.590;2022-12-07T16:44:05;6.20;99.90
29849;DHT22;16728;50.832;5.590;2022-12-07T16:47:07;6.20;99.90
29849;DHT22;16728;50.832;5.590;2022-12-07T16:50:10;6.20;99.90
29849;DHT22;16728;50.832;5.590;2022-12-07T16:53:13;6.20;99.90
29849;DHT22;16728;50.832;5.590;2022-12-07T16:56:16;6.10;99.90
29849;DHT22;16728;50.832;5.590;2022-12-07T16:59:51;6.20;99.90
29849;DHT22;16728;50.832;5.590;2022-12-07T17:02:56;6.10;99.90
29849;DHT22;16728;50.832;5.590;2022-12-07T17:05:58;6.00;99.90
29849;DHT22;16728;50.832;5.590;2022-12-07T17:09:00;6.00;99.90
29849;DHT22;16728;50.832;5.590;2022-12-07T17:12:02;5.90;99.90
29849;DHT22;16728;50.832;5.590;2022-12-07T17:15:04;5.90;99.90
29849;DHT22;16728;50.832;5.590;2022-12-07T17:18:18;5.90;99.90
29849;DHT22;16728;50.832;5.590;2022-12-07T17:21:20;5.90;99.90
29849;DHT22;16728;50.832;5.590;2022-12-07T17:24:22;5.80;99.90
29849;DHT22;16728;50.832;5.590;2022-12-07T17:27:24;5.80;99.90
29849;DHT22;16728;50.832;5.590;2022-12-07T17:30:27;5.80;99.90
29849;DHT22;16728;50.832;5.590;2022-12-07T17:33:29;5.80;99.90
29849;DHT22;16728;50.832;5.590;2022-12-07T17:36:32;5.80;99.90
29849;DHT22;16728;50.832;5.590;2022-12-07T17:39:34;5.80;99.90
29849;DHT22;16728;50.832;5.590;2022-12-07T17:42:36;5.80;99.90
29849;DHT22;16728;50.832;5.590;2022-12-07T17:45:38;5.70;99.90
29849;DHT22;16728;50.832;5.590;2022-12-07T17:48:40;5.80;99.90
29849;DHT22;16728;50.832;5.590;2022-12-07T17:51:42;5.80;99.90
29849;DHT22;16728;50.832;5.590;2022-12-07T17:55:03;5.70;99.90
29849;DHT22;16728;50.832;5.590;2022-12-07T17:58:06;5.70;99.90
29849;DHT22;16728;50.832;5.590;2022-12-07T18:01:09;5.70;99.90
29849;DHT22;16728;50.832;5.590;2022-12-07T18:04:11;5.70;99.90
29849;DHT22;16728;50.832;5.590;2022-12-07T18:07:13;5.70;99.90
29849;DHT22;16728;50.832;5.590;2022-12-07T18:10:15;5.80;99.90
29849;DHT22;16728;50.832;5.590;2022-12-07T18:13:17;5.70;99.90
29849;DHT22;16728;50.832;5.590;2022-12-07T18:16:51;5.70;99.90
29849;DHT22;16728;50.832;5.590;2022-12-07T18:19:53;5.60;99.90
29849;DHT22;16728;50.832;5.590;2022-12-07T18:22:55;5.70;99.90
29849;DHT22;16728;50.832;5.590;2022-12-07T18:25:58;5.60;99.90
29849;DHT22;16728;50.832;5.590;2022-12-07T18:29:00;5.60;99.90
29849;DHT22;16728;50.832;5.590;2022-12-07T18:32:02;5.60;99.90
29849;DHT22;16728;50.832;5.590;2022-12-07T18:35:06;5.60;99.90
29849;DHT22;16728;50.832;5.590;2022-12-07T18:38:08;5.60;99.90
29849;DHT22;16728;50.832;5.590;2022-12-07T18:41:12;5.70;99.90
29849;DHT22;16728;50.832;5.590;2022-12-07T18:44:14;5.60;99.90
29849;DHT22;16728;50.832;5.590;2022-12-07T18:47:17;5.60;99.90
29849;DHT22;16728;50.832;5.590;2022-12-07T18:50:19;5.60;99.90
29849;DHT22;16728;50.832;5.590;2022-12-07T18:53:21;5.50;99.90
29849;DHT22;16728;50.832;5.590;2022-12-07T18:56:24;5.50;99.90
29849;DHT22;16728;50.832;5.590;2022-12-07T18:59:26;5.50;99.90
29849;DHT22;16728;50.832;5.590;2022-12-07T19:02:46;5.50;99.90
29849;DHT22;16728;50.832;5.590;2022-12-07T19:05:48;5.60;99.90
29849;DHT22;16728;50.832;5.590;2022-12-07T19:08:50;5.60;99.90
29849;DHT22;16728;50.832;5.590;2022-12-07T19:11:53;5.60;99.90
29849;DHT22;16728;50.832;5.590;2022-12-07T19:14:57;5.60;99.90
29849;DHT22;16728;50.832;5.590;2022-12-07T19:17:58;5.50;99.90
29849;DHT22;16728;50.832;5.590;2022-12-07T19:21:02;5.60;99.90
29849;DHT22;16728;50.832;5.590;2022-12-07T19:24:04;5.60;99.90
29849;DHT22;16728;50.832;5.590;2022-12-07T19:27:07;5.60;99.90
29849;DHT22;16728;50.832;5.590;2022-12-07T19:30:10;5.50;99.90
29849;DHT22;16728;50.832;5.590;2022-12-07T19:33:12;5.50;99.90
29849;DHT22;16728;50.832;5.590;2022-12-07T19:36:14;5.50;99.90
29849;DHT22;16728;50.832;5.590;2022-12-07T19:39:16;5.50;99.90
29849;DHT22;16728;50.832;5.590;2022-12-07T19:42:18;5.50;99.90
29849;DHT22;16728;50.832;5.590;2022-12-07T19:45:20;5.50;99.90
29849;DHT22;16728;50.832;5.590;2022-12-07T19:48:21;5.50;99.90
29849;DHT22;16728;50.832;5.590;2022-12-07T19:51:24;5.50;99.90
29849;DHT22;16728;50.832;5.590;2022-12-07T19:54:28;5.40;99.90
29849;DHT22;16728;50.832;5.590;2022-12-07T19:57:30;5.50;99.90
29849;DHT22;16728;50.832;5.590;2022-12-07T20:00:32;5.50;99.90
29849;DHT22;16728;50.832;5.590;2022-12-07T20:03:34;5.60;99.90
29849;DHT22;16728;50.832;5.590;2022-12-07T20:06:36;5.60;99.90
29849;DHT22;16728;50.832;5.590;2022-12-07T20:09:38;5.60;99.90
29849;DHT22;16728;50.832;5.590;2022-12-07T20:12:40;5.60;99.90
29849;DHT22;16728;50.832;5.590;2022-12-07T20:16:04;5.60;99.90
29849;DHT22;16728;50.832;5.590;2022-12-07T20:19:21;5.60;99.90
29849;DHT22;16728;50.832;5.590;2022-12-07T20:22:23;5.50;99.90
29849;DHT22;16728;50.832;5.590;2022-12-07T20:25:25;5.50;99.90
29849;DHT22;16728;50.832;5.590;2022-12-07T20:28:26;5.50;99.90
29849;DHT22;16728;50.832;5.590;2022-12-07T20:31:29;5.50;99.90
29849;DHT22;16728;50.832;5.590;2022-12-07T20:34:31;5.50;99.90
29849;DHT22;16728;50.832;5.590;2022-12-07T20:37:33;5.50;99.90
29849;DHT22;16728;50.832;5.590;2022-12-07T20:40:35;5.50;99.90
29849;DHT22;16728;50.832;5.590;2022-12-07T20:43:37;5.50;99.90
29849;DHT22;16728;50.832;5.590;2022-12-07T20:46:39;5.50;99.90
29849;DHT22;16728;50.832;5.590;2022-12-07T20:49:41;5.50;99.90
29849;DHT22;16728;50.832;5.590;2022-12-07T20:52:43;5.50;99.90
29849;DHT22;16728;50.832;5.590;2022-12-07T20:55:45;5.50;99.90
29849;DHT22;16728;50.832;5.590;2022-12-07T20:58:47;5.50;99.90
29849;DHT22;16728;50.832;5.590;2022-12-07T21:01:49;5.50;99.90
29849;DHT22;16728;50.832;5.590;2022-12-07T21:04:51;5.50;99.90
29849;DHT22;16728;50.832;5.590;2022-12-07T21:11:07;5.50;99.90
29849;DHT22;16728;50.832;5.590;2022-12-07T21:14:09;5.50;99.90
29849;DHT22;16728;50.832;5.590;2022-12-07T21:17:11;5.50;99.90
29849;DHT22;16728;50.832;5.590;2022-12-07T21:20:13;5.50;99.90
29849;DHT22;16728;50.832;5.590;2022-12-07T21:23:15;5.50;99.90
29849;DHT22;16728;50.832;5.590;2022-12-07T21:26:20;5.50;99.90
29849;DHT22;16728;50.832;5.590;2022-12-07T21:29:54;5.50;99.90
29849;DHT22;16728;50.832;5.590;2022-12-07T21:32:56;5.50;99.90
29849;DHT22;16728;50.832;5.590;2022-12-07T21:35:58;5.50;99.90
29849;DHT22;16728;50.832;5.590;2022-12-07T21:39:00;5.60;99.90
29849;DHT22;16728;50.832;5.590;2022-12-07T21:42:02;5.50;99.90